Time;durP1;ratioP1;P1;durP2;ratioP2;P2;SDS_P1;SDS_P2;PMS_P1;PMS_P2;Temp;Humidity;BMP_temperature;BMP_pressure;BME280_temperature;BME280_humidity;BME280_pressure;Samples;Min_cycle;Max_cycle;Signal;HPM_P1;HPM_P2
2022/03/18 00:01:48;;;;;;;12.65;4.18;;;;;;;0.73;53.55;103830.00;5039242;28;20579;-81
2022/03/18 00:04:14;;;;;;;9.80;2.78;;;;;;;0.85;53.13;103827.13;5022924;28;20091;-80
2022/03/18 00:06:40;;;;;;;14.13;4.82;;;;;;;0.87;52.80;103830.66;5040990;28;20075;-79
2022/03/18 00:09:06;;;;;;;13.52;4.07;;;;;;;0.86;52.79;103839.22;5027015;28;20060;-79
2022/03/18 00:11:31;;;;;;;13.25;4.00;;;;;;;0.85;52.40;103834.84;5023419;28;20111;-80
2022/03/18 00:13:58;;;;;;;9.80;2.78;;;;;;;0.73;52.73;103848.03;5037994;28;20049;-78
2022/03/18 00:16:26;;;;;;;9.90;2.67;;;;;;;0.69;52.21;103844.41;5021380;28;20036;-79
2022/03/18 00:18:52;;;;;;;5.70;3.28;;;;;;;0.58;52.63;103855.88;5020848;28;20080;-81
2022/03/18 00:21:17;;;;;;;6.13;2.80;;;;;;;0.47;52.66;103857.03;5044769;28;20063;-78
2022/03/18 00:23:43;;;;;;;9.15;3.08;;;;;;;0.44;52.82;103856.88;5020919;28;20055;-77
2022/03/18 00:26:08;;;;;;;9.52;2.67;;;;;;;0.43;53.06;103861.13;5022906;28;20375;-80
2022/03/18 00:28:34;;;;;;;5.85;2.75;;;;;;;0.42;53.48;103868.78;5022367;28;20310;-79
2022/03/18 00:31:01;;;;;;;7.00;2.38;;;;;;;0.49;52.73;103873.44;5041114;28;20040;-80
2022/03/18 00:33:27;;;;;;;4.97;2.35;;;;;;;0.47;52.90;103875.03;5027421;28;20047;-79
2022/03/18 00:35:52;;;;;;;6.50;2.30;;;;;;;0.52;53.10;103865.84;5040975;28;20393;-80
2022/03/18 00:38:18;;;;;;;9.23;2.83;;;;;;;0.53;52.84;103865.06;5006989;28;20139;-79
2022/03/18 00:40:48;;;;;;;7.57;1.98;;;;;;;0.42;52.90;103869.66;5020753;28;20325;-79
2022/03/18 00:43:14;;;;;;;9.07;2.22;;;;;;;0.43;53.02;103870.53;5039265;28;20037;-79
2022/03/18 00:45:39;;;;;;;7.63;2.17;;;;;;;0.43;53.17;103865.41;5019116;28;20063;-79
2022/03/18 00:53:33;;;;;;;8.02;1.88;;;;;;;0.53;52.97;103875.34;5043974;28;20047;-80
2022/03/18 00:55:59;;;;;;;8.98;2.15;;;;;;;0.47;52.58;103875.03;5038569;28;20289;-79
2022/03/18 00:58:24;;;;;;;4.88;1.58;;;;;;;0.37;52.90;103865.09;5038377;28;20056;-79
2022/03/18 01:00:50;;;;;;;9.57;1.60;;;;;;;0.32;53.03;103861.41;5021782;28;21721;-78
2022/03/18 01:03:15;;;;;;;7.32;1.50;;;;;;;0.31;53.66;103862.22;5021240;28;20037;-80
2022/03/18 01:05:42;;;;;;;7.38;1.98;;;;;;;0.41;54.64;103867.00;5020933;28;20076;-79
2022/03/18 01:08:08;;;;;;;9.23;2.42;;;;;;;0.53;54.58;103867.63;5018980;28;20048;-78
2022/03/18 01:10:34;;;;;;;11.27;2.20;;;;;;;0.54;54.45;103871.09;5038856;28;20245;-81
2022/03/18 01:12:59;;;;;;;9.73;2.00;;;;;;;0.55;54.55;103867.72;5020945;28;20045;-80
2022/03/18 01:15:25;;;;;;;6.68;2.10;;;;;;;0.49;54.06;103874.31;5039174;28;20120;-80
2022/03/18 01:17:51;;;;;;;8.43;2.17;;;;;;;0.44;54.23;103875.78;5021315;28;20123;-79
2022/03/18 01:20:16;;;;;;;8.07;2.03;;;;;;;0.43;53.95;103866.28;5038767;28;20045;-80
2022/03/18 01:22:42;;;;;;;7.00;2.30;;;;;;;0.38;54.31;103879.72;5039744;28;20049;-79
2022/03/18 01:25:08;;;;;;;11.20;1.77;;;;;;;0.42;54.16;103876.50;5044199;28;20329;-78
2022/03/18 01:27:33;;;;;;;5.38;1.90;;;;;;;0.38;53.91;103875.47;5043085;28;20051;-81
2022/03/18 01:29:59;;;;;;;8.98;1.98;;;;;;;0.33;53.90;103876.03;5041941;28;20107;-79
2022/03/18 01:32:24;;;;;;;5.57;2.30;;;;;;;0.28;54.06;103870.66;5037875;28;20048;-80
2022/03/18 01:34:50;;;;;;;4.65;1.30;;;;;;;0.41;54.21;103875.63;5020313;28;20032;-81
2022/03/18 01:37:15;;;;;;;4.30;1.75;;;;;;;0.49;54.58;103874.31;5023046;28;20143;-79
2022/03/18 01:39:41;;;;;;;5.93;1.67;;;;;;;0.59;54.02;103873.09;5024643;28;20356;-79
2022/03/18 01:42:06;;;;;;;8.55;1.80;;;;;;;0.48;53.95;103881.97;5037490;28;20127;-81
2022/03/18 01:44:41;;;;;;;11.23;2.15;;;;;;;0.45;53.77;103874.94;5021014;28;20044;-79
2022/03/18 01:47:08;;;;;;;16.08;1.88;;;;;;;0.33;54.29;103883.78;5021342;28;20124;-80
2022/03/18 01:49:33;;;;;;;6.75;1.90;;;;;;;0.30;54.24;103878.44;5038292;28;20184;-79
2022/03/18 01:52:00;;;;;;;6.53;1.67;;;;;;;0.34;54.35;103877.81;5037155;28;20303;-80
2022/03/18 01:57:09;;;;;;;9.07;1.75;;;;;;;0.21;53.68;103890.06;5025815;28;20583;-80
2022/03/18 01:59:35;;;;;;;10.15;2.35;;;;;;;0.19;54.68;103886.50;5038906;28;20029;-80
2022/03/18 02:02:01;;;;;;;6.43;2.05;;;;;;;0.24;54.65;103890.19;5024411;28;20087;-81
2022/03/18 02:04:26;;;;;;;6.05;2.42;;;;;;;0.33;54.58;103888.91;5043433;28;20033;-79
2022/03/18 02:06:53;;;;;;;4.93;1.83;;;;;;;0.28;53.98;103891.25;5057705;28;20037;-79
2022/03/18 02:09:19;;;;;;;3.83;1.60;;;;;;;0.24;54.15;103890.19;5051078;28;20039;-77
2022/03/18 02:11:46;;;;;;;4.93;1.50;;;;;;;0.27;53.93;103898.06;5044182;28;20034;-79
2022/03/18 02:14:11;;;;;;;6.95;1.65;;;;;;;0.35;53.83;103893.31;5038573;28;20033;-80
2022/03/18 02:16:39;;;;;;;3.75;2.10;;;;;;;0.34;53.62;103896.69;5025081;28;20041;-77
2022/03/18 02:19:06;;;;;;;9.52;1.70;;;;;;;0.20;53.95;103888.28;5018483;28;20052;-78
2022/03/18 02:21:35;;;;;;;6.22;2.33;;;;;;;0.11;54.50;103890.38;5024200;28;20128;-79
2022/03/18 02:24:00;;;;;;;6.97;1.80;;;;;;;0.12;54.47;103897.25;5018484;28;20048;-79
2022/03/18 02:26:26;;;;;;;4.10;1.58;;;;;;;0.08;54.53;103897.94;5039219;28;20514;-80
2022/03/18 02:28:52;;;;;;;6.85;1.75;;;;;;;0.10;54.56;103901.47;5022185;28;20044;-80
2022/03/18 02:31:19;;;;;;;3.80;1.30;;;;;;;0.12;54.24;103888.66;5022179;28;20098;-80
2022/03/18 02:33:45;;;;;;;11.30;1.83;;;;;;;0.20;53.93;103892.53;5034186;28;20504;-78
2022/03/18 02:36:10;;;;;;;7.15;1.70;;;;;;;0.30;53.73;103884.50;5022497;28;20055;-79
2022/03/18 02:38:36;;;;;;;8.77;2.38;;;;;;;0.34;53.76;103890.66;5023919;28;20128;-80
2022/03/18 02:41:01;;;;;;;3.35;1.73;;;;;;;0.30;53.88;103886.16;5023196;28;20036;-79
2022/03/18 02:43:27;;;;;;;7.18;1.35;;;;;;;0.35;53.64;103898.47;5021556;28;20188;-78
2022/03/18 02:45:52;;;;;;;15.68;2.33;;;;;;;0.30;53.59;103904.16;5035694;28;20643;-80
2022/03/18 02:48:18;;;;;;;5.63;1.67;;;;;;;0.18;53.67;103900.16;5019607;28;20049;-78
2022/03/18 02:50:43;;;;;;;4.72;1.45;;;;;;;0.22;53.65;103896.94;5017494;28;20029;-79
2022/03/18 02:53:10;;;;;;;9.32;2.03;;;;;;;0.19;53.58;103901.94;5039451;28;20049;-77
2022/03/18 02:55:36;;;;;;;6.38;2.65;;;;;;;0.19;53.63;103896.81;5035730;28;20025;-81
2022/03/18 02:58:01;;;;;;;3.40;1.70;;;;;;;0.11;53.63;103903.22;5018837;28;20051;-78
2022/03/18 03:00:27;;;;;;;3.85;1.52;;;;;;;0.12;53.51;103904.09;5021234;28;20059;-81
2022/03/18 03:02:52;;;;;;;5.97;2.22;;;;;;;0.08;53.57;103905.66;5019354;28;20380;-79
2022/03/18 03:08:03;;;;;;;5.63;1.75;;;;;;;0.13;53.39;103909.34;5017828;28;20033;-78
2022/03/18 03:10:34;;;;;;;3.95;1.42;;;;;;;0.10;53.50;103904.03;5020581;28;20040;-80
2022/03/18 03:13:03;;;;;;;4.40;1.67;;;;;;;0.11;53.76;103910.06;5036565;28;20552;-81
2022/03/18 03:15:29;;;;;;;8.13;2.05;;;;;;;0.14;54.57;103912.78;5014233;28;20159;-79
2022/03/18 03:17:55;;;;;;;5.00;2.05;;;;;;;0.23;54.32;103918.41;5035015;28;20128;-80
2022/03/18 03:20:20;;;;;;;6.22;1.70;;;;;;;0.26;54.08;103909.16;5018927;28;20032;-80
2022/03/18 03:22:47;;;;;;;9.00;1.83;;;;;;;0.24;54.23;103915.91;5023570;28;20053;-80
2022/03/18 03:25:12;;;;;;;11.02;1.88;;;;;;;0.37;54.17;103920.03;5027467;28;20568;-81
2022/03/18 03:27:38;;;;;;;7.20;1.85;;;;;;;0.27;53.76;103920.34;5039608;28;20674;-77
2022/03/18 03:30:07;;;;;;;4.75;1.25;;;;;;;0.31;53.89;103916.25;5024931;28;20039;-80
2022/03/18 03:32:33;;;;;;;9.90;2.45;;;;;;;0.34;53.92;103926.69;5039093;28;20502;-80
2022/03/18 03:34:59;;;;;;;8.43;2.38;;;;;;;0.24;54.14;103931.34;5008282;28;20545;-79
2022/03/18 03:37:28;;;;;;;10.02;2.28;;;;;;;0.20;54.59;103939.72;5042834;28;20087;-80
2022/03/18 03:39:54;;;;;;;8.40;2.03;;;;;;;0.26;53.87;103939.16;5023148;28;20033;-82
2022/03/18 03:42:19;;;;;;;9.50;1.85;;;;;;;0.18;54.62;103941.31;5021577;28;20040;-79
2022/03/18 03:44:45;;;;;;;6.00;2.00;;;;;;;0.28;54.54;103951.31;5045171;28;20060;-79
2022/03/18 03:47:12;;;;;;;17.95;2.97;;;;;;;0.26;55.08;103954.59;5039004;28;20456;-80
2022/03/18 03:49:38;;;;;;;5.45;1.85;;;;;;;0.34;54.48;103953.28;5028546;28;20028;-79
2022/03/18 03:52:04;;;;;;;7.25;3.17;;;;;;;0.37;54.42;103958.63;5039691;28;20117;-79
2022/03/18 03:54:29;;;;;;;10.57;2.25;;;;;;;0.37;53.97;103957.75;5023700;28;20021;-80
2022/03/18 03:56:55;;;;;;;10.35;2.20;;;;;;;0.31;54.96;103967.72;5027173;28;20099;-81
2022/03/18 03:59:22;;;;;;;3.97;1.70;;;;;;;0.36;54.69;103968.81;5007046;28;20194;-80
2022/03/18 04:01:47;;;;;;;3.95;1.60;;;;;;;0.28;54.25;103959.03;5039063;28;20051;-81
2022/03/18 04:04:13;;;;;;;4.70;2.13;;;;;;;0.26;54.15;103964.91;5038337;28;20053;-82
2022/03/18 04:06:39;;;;;;;5.40;2.28;;;;;;;0.28;54.07;103974.47;5023806;28;20559;-81
2022/03/18 04:09:04;;;;;;;6.47;2.03;;;;;;;0.30;54.18;103976.22;5039127;28;20061;-79
2022/03/18 04:11:30;;;;;;;5.00;1.88;;;;;;;0.22;53.88;103979.28;5011891;28;20052;-79
2022/03/18 04:13:56;;;;;;;7.35;2.30;;;;;;;0.19;54.05;103979.13;5038753;28;20053;-80
2022/03/18 04:16:21;;;;;;;3.40;1.95;;;;;;;0.16;54.20;103978.94;5027331;28;20033;-82
2022/03/18 04:18:47;;;;;;;5.97;2.17;;;;;;;0.12;54.42;103979.56;5041061;28;20496;-80
2022/03/18 04:21:14;;;;;;;7.50;2.25;;;;;;;0.13;54.68;103993.34;5040238;28;20044;-78
2022/03/18 04:23:40;;;;;;;4.00;2.58;;;;;;;0.14;54.64;103998.53;5026450;28;20052;-80
2022/03/18 04:26:06;;;;;;;8.48;2.63;;;;;;;0.19;54.29;103993.66;5038870;28;20037;-79
2022/03/18 04:28:31;;;;;;;12.38;2.45;;;;;;;0.29;54.11;103995.91;5039440;28;20040;-79
2022/03/18 04:30:57;;;;;;;6.47;2.78;;;;;;;0.25;54.19;104002.56;5038274;28;20048;-80
2022/03/18 04:33:22;;;;;;;8.65;2.92;;;;;;;0.17;54.22;104003.00;5042670;28;20562;-81
2022/03/18 04:35:48;;;;;;;7.53;2.47;;;;;;;0.15;54.17;104008.06;5003142;28;20036;-80
2022/03/18 04:38:13;;;;;;;9.10;3.50;;;;;;;0.17;54.30;104005.56;5041053;28;20044;-79
2022/03/18 04:40:39;;;;;;;12.00;2.60;;;;;;;0.07;54.38;104012.75;5025838;28;20044;-80
2022/03/18 04:43:04;;;;;;;10.15;3.65;;;;;;;0.19;54.42;104003.94;5021920;28;20049;-81
2022/03/18 04:45:30;;;;;;;11.38;3.28;;;;;;;0.13;54.67;104019.94;5038007;28;20041;-81
2022/03/18 04:47:56;;;;;;;6.68;2.05;;;;;;;0.24;54.53;104020.53;5037397;28;20076;-79
2022/03/18 04:50:22;;;;;;;7.03;2.30;;;;;;;0.26;54.51;104027.53;5022277;28;20033;-81
2022/03/18 04:52:48;;;;;;;7.22;3.10;;;;;;;0.36;54.05;104026.31;5036856;28;20037;-79
2022/03/18 04:55:13;;;;;;;8.27;2.60;;;;;;;0.28;53.80;104025.91;5024735;28;20029;-79
2022/03/18 04:57:39;;;;;;;7.15;2.63;;;;;;;0.25;54.12;104033.44;5020277;28;20053;-80
2022/03/18 05:00:06;;;;;;;5.35;2.50;;;;;;;0.28;54.13;104037.91;5022465;28;20515;-79
2022/03/18 05:02:31;;;;;;;5.38;2.30;;;;;;;0.34;54.08;104035.63;5037242;28;20128;-79
2022/03/18 05:04:57;;;;;;;7.78;2.83;;;;;;;0.33;54.14;104040.72;5023084;28;20338;-81
2022/03/18 05:07:24;;;;;;;6.35;2.90;;;;;;;0.30;54.02;104037.97;5037852;28;20107;-80
2022/03/18 05:09:49;;;;;;;7.57;2.95;;;;;;;0.29;54.06;104042.22;5021552;28;20094;-81
2022/03/18 05:12:16;;;;;;;6.28;2.38;;;;;;;0.24;53.87;104044.56;5041170;28;20435;-85
2022/03/18 05:14:42;;;;;;;9.30;3.05;;;;;;;0.09;54.30;104042.84;5041561;28;20036;-81
2022/03/18 05:17:09;;;;;;;11.00;3.90;;;;;;;-0.00;54.67;104043.22;5020720;28;20024;-85
2022/03/18 05:19:35;;;;;;;4.50;2.40;;;;;;;-0.00;54.42;104043.22;5024087;28;20106;-83
2022/03/18 05:22:01;;;;;;;11.32;2.30;;;;;;;-0.08;54.98;104047.06;5025872;28;20140;-85
2022/03/18 05:24:26;;;;;;;8.95;2.30;;;;;;;-0.10;55.07;104047.00;5040610;28;20127;-80
2022/03/18 05:26:57;;;;;;;6.95;2.42;;;;;;;-0.12;55.22;104051.16;5043290;28;20080;-83
2022/03/18 05:29:23;;;;;;;8.57;2.55;;;;;;;-0.11;55.23;104050.34;5010098;28;20040;-80
2022/03/18 05:31:49;;;;;;;7.25;2.92;;;;;;;-0.09;55.09;104048.75;5039925;28;20037;-80
2022/03/18 05:34:15;;;;;;;8.30;3.22;;;;;;;-0.08;55.17;104053.09;5043555;28;20032;-81
2022/03/18 05:36:41;;;;;;;15.25;3.08;;;;;;;0.01;54.96;104060.41;5023808;28;20558;-83
2022/03/18 05:39:07;;;;;;;13.90;3.05;;;;;;;0.08;54.68;104062.53;5020774;28;20048;-80
2022/03/18 05:41:33;;;;;;;12.68;3.05;;;;;;;0.05;54.77;104062.34;5028870;28;20690;-82
2022/03/18 05:43:58;;;;;;;11.30;3.67;;;;;;;0.13;54.78;104071.38;5039510;28;20159;-82
2022/03/18 05:46:24;;;;;;;8.50;2.65;;;;;;;0.28;54.30;104072.22;5040574;28;20029;-80
2022/03/18 05:48:49;;;;;;;8.50;2.55;;;;;;;0.24;54.08;104078.00;5037354;28;20199;-84
2022/03/18 05:51:15;;;;;;;5.05;2.60;;;;;;;0.23;54.08;104089.13;5019958;28;20021;-80
2022/03/18 05:53:41;;;;;;;3.72;2.25;;;;;;;0.31;53.84;104098.94;5042528;28;20049;-81
2022/03/18 05:58:50;;;;;;;7.50;3.05;;;;;;;0.30;53.30;104099.72;5043773;28;20599;-83
2022/03/18 06:01:16;;;;;;;10.63;2.95;;;;;;;0.31;53.70;104104.06;5040484;28;20028;-81
2022/03/18 06:03:42;;;;;;;11.55;2.95;;;;;;;0.35;53.53;104106.91;5025440;28;20051;-82
2022/03/18 06:06:08;;;;;;;4.63;2.00;;;;;;;0.45;53.84;104116.00;5021947;28;20064;-81
2022/03/18 06:14:02;;;;;;;8.32;4.22;;;;;;;0.59;53.93;104117.63;5023118;28;20033;-79
2022/03/18 06:16:27;;;;;;;23.02;7.57;;;;;;;0.59;53.72;104115.06;5021423;28;20029;-82
2022/03/18 06:18:54;;;;;;;9.45;5.38;;;;;;;0.73;53.96;104122.66;5038754;28;20041;-82
2022/03/18 06:21:23;;;;;;;10.15;4.22;;;;;;;0.79;53.47;104129.00;5043549;28;20055;-80
2022/03/18 06:23:49;;;;;;;11.98;3.60;;;;;;;0.88;53.52;104131.16;5035746;28;20454;-80
2022/03/18 06:26:15;;;;;;;16.17;4.85;;;;;;;1.49;54.09;104136.94;5039924;28;20090;-81
2022/03/18 06:28:40;;;;;;;8.90;4.40;;;;;;;3.04;51.66;104129.53;5038574;28;20049;-77
2022/03/18 06:31:06;;;;;;;6.30;3.17;;;;;;;5.13;51.09;104128.31;5001442;28;20475;-81
2022/03/18 06:33:33;;;;;;;8.73;3.30;;;;;;;6.59;45.26;104124.31;5024190;28;20677;-84
2022/03/18 06:35:59;;;;;;;9.88;3.72;;;;;;;7.78;42.84;104117.91;5040167;28;20028;-81
2022/03/18 06:38:25;;;;;;;10.73;3.80;;;;;;;9.14;42.58;104119.88;5024259;28;20067;-80
2022/03/18 06:40:51;;;;;;;5.75;2.72;;;;;;;10.06;40.09;104116.16;5022564;28;20064;-82
2022/03/18 06:43:17;;;;;;;8.75;2.65;;;;;;;11.18;38.53;104121.84;5007079;28;20048;-80
2022/03/18 06:45:43;;;;;;;7.78;2.97;;;;;;;12.15;34.08;104123.41;5022335;28;20040;-82
2022/03/18 06:48:09;;;;;;;4.95;2.78;;;;;;;12.75;34.86;104131.53;5006415;28;20059;-81
2022/03/18 06:50:35;;;;;;;6.68;2.67;;;;;;;13.45;30.80;104133.38;5022259;28;20482;-80
2022/03/18 06:53:01;;;;;;;9.75;3.00;;;;;;;13.27;31.53;104141.25;5040159;28;20494;-82
2022/03/18 06:55:27;;;;;;;4.63;2.15;;;;;;;13.88;29.20;104135.97;5024676;28;20044;-80
2022/03/18 06:57:53;;;;;;;7.85;2.20;;;;;;;14.72;28.54;104147.97;5023796;28;20037;-84
2022/03/18 07:00:19;;;;;;;8.13;2.90;;;;;;;15.51;26.20;104148.28;5029355;28;20493;-83
2022/03/18 07:02:44;;;;;;;6.60;2.63;;;;;;;15.92;26.37;104168.09;5029282;28;20084;-82
2022/03/18 07:05:12;;;;;;;9.85;3.30;;;;;;;15.94;24.45;104176.88;5030867;28;20371;-83
2022/03/18 07:07:39;;;;;;;7.25;2.60;;;;;;;16.25;24.70;104195.03;5024798;28;20044;-83
2022/03/18 07:10:06;;;;;;;6.75;3.60;;;;;;;16.92;24.71;104195.09;5016055;28;20071;-80
2022/03/18 07:12:31;;;;;;;5.97;2.75;;;;;;;16.72;23.48;104187.41;5044101;28;20063;-80
2022/03/18 07:14:57;;;;;;;6.28;2.60;;;;;;;14.46;25.63;104191.97;5027326;28;20036;-82
2022/03/18 07:20:08;;;;;;;7.75;4.10;;;;;;;14.18;25.36;104184.13;5048486;28;20116;-82
2022/03/18 07:22:33;;;;;;;6.00;3.17;;;;;;;15.97;23.82;104182.13;5045583;28;20088;-80
2022/03/18 07:24:59;;;;;;;4.65;2.53;;;;;;;16.58;25.31;104185.84;5042087;28;20037;-79
2022/03/18 07:27:24;;;;;;;5.05;2.97;;;;;;;17.71;21.85;104181.50;5026339;28;20136;-80
2022/03/18 07:29:50;;;;;;;6.10;2.45;;;;;;;18.06;20.57;104184.34;5008326;28;20047;-77
2022/03/18 07:32:15;;;;;;;4.60;2.22;;;;;;;19.48;20.95;104198.00;5045209;28;20066;-79
2022/03/18 07:34:41;;;;;;;6.00;2.85;;;;;;;19.05;20.44;104206.13;5023346;28;20401;-78
2022/03/18 07:37:07;;;;;;;11.55;3.40;;;;;;;19.20;20.37;104200.47;5046151;28;20025;-79
2022/03/18 07:39:33;;;;;;;9.63;2.75;;;;;;;18.51;22.60;104211.72;5043735;28;20048;-80
2022/03/18 07:41:58;;;;;;;8.10;3.03;;;;;;;19.60;20.15;104207.44;5022742;28;20031;-78
2022/03/18 07:44:24;;;;;;;6.38;3.20;;;;;;;19.49;20.67;104217.44;5023242;28;20033;-78
2022/03/18 07:46:49;;;;;;;12.00;3.88;;;;;;;20.00;21.55;104214.34;5040559;28;20262;-80
2022/03/18 07:49:15;;;;;;;7.90;3.33;;;;;;;20.23;20.18;104226.13;5026201;28;20052;-80
2022/03/18 07:51:40;;;;;;;8.93;3.35;;;;;;;20.28;18.54;104229.50;5043049;28;20047;-78
2022/03/18 07:54:06;;;;;;;7.43;3.03;;;;;;;20.01;20.39;104228.47;5040371;28;20036;-79
2022/03/18 07:56:31;;;;;;;7.57;3.85;;;;;;;19.65;20.44;104237.38;5042888;28;20056;-81
2022/03/18 07:58:56;;;;;;;7.57;3.28;;;;;;;20.42;19.70;104243.28;5028750;28;20045;-78
2022/03/18 08:01:23;;;;;;;8.55;3.40;;;;;;;20.10;20.41;104244.16;5018631;28;20037;-79
2022/03/18 08:03:49;;;;;;;10.18;4.05;;;;;;;20.01;20.90;104247.94;5026177;28;20496;-78
2022/03/18 08:06:14;;;;;;;8.45;3.50;;;;;;;21.11;19.95;104248.28;5029918;28;20103;-79
2022/03/18 08:08:41;;;;;;;6.47;3.70;;;;;;;20.72;20.47;104253.91;5016850;28;20282;-80
2022/03/18 08:11:07;;;;;;;8.38;3.83;;;;;;;21.45;19.58;104264.03;5025869;28;20047;-79
2022/03/18 08:13:32;;;;;;;10.93;3.50;;;;;;;21.88;18.68;104259.06;5039514;28;20561;-80
2022/03/18 08:15:58;;;;;;;9.88;4.57;;;;;;;21.65;19.59;104263.41;5023808;28;20606;-80
2022/03/18 08:18:24;;;;;;;9.88;4.40;;;;;;;22.22;18.41;104269.41;5050644;28;20045;-80
2022/03/18 08:20:51;;;;;;;9.30;4.63;;;;;;;21.25;21.72;104272.69;5028631;28;20083;-81
2022/03/18 08:23:17;;;;;;;7.50;4.20;;;;;;;21.22;20.30;104280.78;5041831;28;20051;-79
2022/03/18 08:25:43;;;;;;;6.60;3.88;;;;;;;21.22;20.35;104283.44;5027628;28;20033;-79
2022/03/18 08:28:08;;;;;;;10.65;4.55;;;;;;;20.80;20.67;104289.13;5030221;28;20069;-80
2022/03/18 08:30:35;;;;;;;11.65;4.53;;;;;;;21.42;20.78;104289.88;5028627;28;20045;-82
2022/03/18 08:33:01;;;;;;;8.60;4.32;;;;;;;20.94;21.35;104297.56;5043091;28;20069;-78
2022/03/18 08:35:27;;;;;;;20.23;6.15;;;;;;;21.40;21.01;104299.69;5040662;28;20037;-79
2022/03/18 08:37:56;;;;;;;10.02;4.63;;;;;;;20.51;22.21;104303.25;5021319;28;20045;-78
2022/03/18 08:40:29;;;;;;;14.73;4.72;;;;;;;20.34;23.78;104301.06;5030688;28;20036;-76
2022/03/18 08:42:56;;;;;;;13.02;4.22;;;;;;;20.49;22.61;104305.97;5036447;28;20037;-79
2022/03/18 08:45:23;;;;;;;13.00;4.32;;;;;;;20.59;22.68;104309.22;5022625;28;20033;-80
2022/03/18 08:47:48;;;;;;;9.07;4.85;;;;;;;19.92;23.59;104304.78;5022393;28;20048;-78
2022/03/18 08:50:14;;;;;;;11.20;6.30;;;;;;;19.88;24.39;104315.53;5030649;28;20114;-78
2022/03/18 08:52:40;;;;;;;16.00;4.93;;;;;;;19.84;23.45;104321.84;5036593;28;20410;-79
2022/03/18 08:55:07;;;;;;;16.48;5.20;;;;;;;19.32;24.04;104323.06;5043851;28;20033;-80
2022/03/18 08:57:37;;;;;;;16.00;4.28;;;;;;;19.04;25.74;104326.34;5020263;28;20053;-76
2022/03/18 09:00:11;;;;;;;15.55;5.13;;;;;;;19.08;24.77;104325.38;5022251;28;20049;-78
2022/03/18 09:02:38;;;;;;;13.57;4.32;;;;;;;18.66;24.97;104339.44;5021072;28;20041;-77
2022/03/18 09:05:05;;;;;;;11.57;3.60;;;;;;;18.69;25.17;104338.50;5037366;28;20033;-76
2022/03/18 09:07:32;;;;;;;17.35;4.70;;;;;;;17.90;26.86;104346.09;5021381;28;20128;-77
2022/03/18 09:09:58;;;;;;;11.43;5.03;;;;;;;16.61;28.82;104367.13;5041156;28;20067;-77
2022/03/18 09:12:24;;;;;;;9.43;3.80;;;;;;;15.62;29.74;104366.13;5039038;28;20076;-79
2022/03/18 09:14:49;;;;;;;15.55;5.28;;;;;;;14.91;31.71;104369.94;5039738;28;20036;-78
2022/03/18 09:17:14;;;;;;;17.15;5.93;;;;;;;14.85;32.36;104374.38;5028689;28;20033;-77
2022/03/18 09:19:40;;;;;;;13.60;4.80;;;;;;;15.42;31.48;104372.44;5024843;28;20834;-77
2022/03/18 09:22:09;;;;;;;13.00;3.83;;;;;;;15.01;32.50;104373.44;5045450;28;20041;-80
2022/03/18 09:24:36;;;;;;;11.93;4.65;;;;;;;14.86;32.21;104376.13;5047837;28;20040;-80
2022/03/18 09:27:04;;;;;;;10.10;4.75;;;;;;;14.07;34.92;104378.78;5022952;28;20048;-78
2022/03/18 09:29:30;;;;;;;9.13;4.22;;;;;;;14.28;33.89;104382.31;5023070;28;20033;-79
2022/03/18 09:31:56;;;;;;;11.02;4.13;;;;;;;14.62;33.63;104379.69;5038072;28;20032;-77
2022/03/18 09:34:24;;;;;;;15.25;4.50;;;;;;;13.82;34.69;104383.13;5020274;28;20413;-79
2022/03/18 09:36:55;;;;;;;20.67;4.70;;;;;;;14.45;33.69;104383.19;5018863;28;20064;-79
2022/03/18 09:39:23;;;;;;;11.98;3.80;;;;;;;14.93;33.57;104384.00;5033008;28;20037;-77
2022/03/18 09:41:49;;;;;;;13.93;4.00;;;;;;;14.96;32.97;104383.09;5017731;28;20032;-79
2022/03/18 09:44:15;;;;;;;16.85;4.75;;;;;;;15.26;31.99;104383.91;5032870;28;20041;-80
2022/03/18 09:46:41;;;;;;;16.42;4.63;;;;;;;15.18;32.14;104390.06;5018389;28;20398;-80
2022/03/18 09:49:11;;;;;;;10.27;3.42;;;;;;;14.80;33.74;104397.22;5031040;28;20052;-80
2022/03/18 09:51:42;;;;;;;11.18;3.97;;;;;;;15.07;32.48;104391.84;5016964;28;20044;-77
2022/03/18 09:54:10;;;;;;;8.75;3.47;;;;;;;15.25;32.04;104393.56;4999462;28;20064;-81
2022/03/18 09:56:39;;;;;;;14.75;3.67;;;;;;;15.10;32.59;104397.13;5023018;28;20043;-76
2022/03/18 09:59:05;;;;;;;10.40;3.40;;;;;;;15.22;33.13;104393.59;5031973;28;20498;-78
2022/03/18 10:01:30;;;;;;;18.80;4.60;;;;;;;14.42;33.75;104408.66;5025949;28;20106;-79
2022/03/18 10:04:02;;;;;;;15.68;3.60;;;;;;;15.01;33.17;104402.41;5025162;28;20425;-78
2022/03/18 10:06:28;;;;;;;11.35;3.05;;;;;;;15.15;32.24;104413.78;5041620;28;20051;-81
2022/03/18 10:08:55;;;;;;;16.92;3.97;;;;;;;15.30;33.56;104412.00;5044854;28;20522;-78
2022/03/18 10:11:26;;;;;;;12.98;3.40;;;;;;;15.66;31.93;104408.34;5025274;28;20124;-80
2022/03/18 10:13:56;;;;;;;;;;;;;;;15.28;32.72;104411.13;5046488;28;20041;-78
2022/03/18 10:16:37;;;;;;;10.38;3.95;;;;;;;15.42;31.92;104403.19;5025509;28;19917;-79
2022/03/18 10:19:25;;;;;;;13.88;3.60;;;;;;;15.11;32.55;104408.53;5030283;28;20573;-79
2022/03/18 10:22:01;;;;;;;12.90;4.15;;;;;;;15.78;32.68;104412.66;5027323;28;20513;-76
2022/03/18 10:24:30;;;;;;;13.48;4.15;;;;;;;15.45;32.58;104414.56;5024309;28;20449;-78
2022/03/18 10:27:15;;;;;;;11.48;3.47;;;;;;;15.71;32.36;104422.38;5016755;28;20682;-78
2022/03/18 10:29:43;;;;;;;12.70;3.50;;;;;;;15.53;32.03;104428.59;5003113;28;20534;-78
2022/03/18 10:32:10;;;;;;;12.63;4.10;;;;;;;14.75;33.05;104426.19;5023555;28;20487;-79
2022/03/18 10:37:21;;;;;;;18.65;4.00;;;;;;;15.18;33.48;104429.56;5043420;28;20045;-78
2022/03/18 10:39:51;;;;;;;13.60;4.20;;;;;;;14.96;33.71;104433.16;5027388;28;20202;-78
2022/03/18 10:42:20;;;;;;;21.85;5.18;;;;;;;15.23;33.11;104434.00;5022590;28;20435;-79
2022/03/18 10:44:54;;;;;;;16.42;3.55;;;;;;;15.23;32.95;104434.00;5038690;28;20131;-76
2022/03/18 10:47:28;;;;;;;10.30;4.22;;;;;;;15.77;32.79;104432.88;5044886;28;20033;-78
2022/03/18 10:50:24;;;;;;;16.75;3.80;;;;;;;15.92;31.96;104437.16;5037940;28;20039;-78
2022/03/18 10:52:50;;;;;;;10.18;3.40;;;;;;;16.13;30.90;104446.75;5023482;28;20049;-80
2022/03/18 10:55:22;;;;;;;14.93;3.80;;;;;;;15.01;33.08;104448.94;5041053;28;20079;-78
2022/03/18 10:58:10;;;;;;;15.75;4.10;;;;;;;14.97;33.78;104456.00;5006698;28;20091;-79
2022/03/18 11:00:38;;;;;;;12.52;3.95;;;;;;;15.08;33.69;104448.94;5039404;28;20217;-79
2022/03/18 11:03:04;;;;;;;11.38;3.58;;;;;;;15.34;33.28;104451.50;5006498;28;20049;-77
2022/03/18 11:05:38;;;;;;;18.00;3.78;;;;;;;15.53;32.94;104460.25;5023547;28;20033;-78
2022/03/18 11:08:07;;;;;;;16.08;4.25;;;;;;;15.56;32.44;104459.34;5006265;28;20098;-80
2022/03/18 11:13:22;;;;;;;10.20;3.95;;;;;;;16.40;31.65;104450.06;5045195;28;20227;-78
2022/03/18 11:15:49;;;;;;;14.40;4.13;;;;;;;16.35;32.30;104452.75;5000416;28;20039;-76
2022/03/18 11:18:15;;;;;;;19.63;4.03;;;;;;;16.71;31.91;104458.59;5040341;28;20099;-77
2022/03/18 11:20:45;;;;;;;25.17;4.38;;;;;;;16.48;31.11;104468.47;5037098;28;20049;-77
2022/03/18 11:23:19;;;;;;;17.40;3.90;;;;;;;16.19;32.52;104466.94;5041460;28;20175;-75
2022/03/18 11:25:54;;;;;;;11.35;3.60;;;;;;;15.51;33.08;104463.78;5049545;28;20406;-81
2022/03/18 11:28:22;;;;;;;9.98;3.97;;;;;;;15.70;32.51;104469.81;5001271;28;20051;-77
2022/03/18 11:31:00;;;;;;;20.30;3.65;;;;;;;16.05;31.81;104476.72;5042761;28;20036;-77
2022/03/18 11:33:26;;;;;;;11.40;4.15;;;;;;;16.06;31.97;104470.53;5038540;28;20044;-78
2022/03/18 11:35:51;;;;;;;10.88;3.17;;;;;;;15.65;32.80;104471.63;5008188;28;20122;-78
2022/03/18 11:38:23;;;;;;;16.38;3.85;;;;;;;15.73;32.98;104467.19;5026121;28;20094;-77
2022/03/18 11:40:57;;;;;;;16.90;3.60;;;;;;;15.78;31.79;104473.31;5024078;28;20076;-81
2022/03/18 11:43:54;;;;;;;21.08;4.07;;;;;;;15.39;33.66;104483.13;5026533;28;20041;-82
2022/03/18 11:46:23;;;;;;;20.05;4.30;;;;;;;15.65;33.87;104482.16;5046544;28;20036;-77
2022/03/18 11:49:13;;;;;;;12.38;3.90;;;;;;;15.65;33.83;104487.44;5038640;28;20049;-79
2022/03/18 11:51:41;;;;;;;17.90;4.72;;;;;;;15.06;34.58;104491.97;5037575;28;20040;-78
2022/03/18 11:54:23;;;;;;;10.68;2.90;;;;;;;15.20;34.72;104489.31;5039031;28;20099;-79